If you wish to contribute or participate in the discussions about articles you are invited to join SKYbrary as a registered user

 Actions

Masset Airport

From SKYbrary Wiki

CZMT
Airport
ICAO: CZMT – IATA: ZMT
Summary
Name Masset Airport
Region North America
Territory Canada CA.gif
Location Masset, British Columbia
Serving Masset
Elevation 8 m
26.247 ft
26.247 ft8 m
Coordinates 54° 1' 35.44" N, 132° 7' 28.30" W
Runways
Designator Length Width Surface ROPS
13/31 1524 m5,000 ft
30 m98.425 ft
ASP yes/yes


METAR
Observation CZMT 192300Z 31003KT 15SM SCT030 BKN120 BKN200 09/06 A3026 RMK SC4AC2CI1 SLP248
Station MASSET
Date/Time 19 November 2019 23:00:00
Wind direction 310°
Wind speed 03 kts
Lowest cloud amount scattered clouds
Temperature 9°C
Dew point 6°C
Humidity 81%
QNH hPa
Weather condition n/a

Masset Airport is located 1.5 nm2,778 m
2.778 km
9,114.173 ft
northeast of Masset, British Columbia, Canada.

Climatology

Temperate Marine climate/Oceanic climate (Köppen climate classification Cfb). Moderately cool summer and comparatively warm winter.

Maps

Terrain

Loading map...

Airport Layout

Loading map...


Accidents & Serious Incidents at or in vicinity of CZMT

  • LJ35, vicinity Masset BC Canada, 1995 (On 11 January 1995, a Learjet 35 on a medical positioning flight and carrying a medical team crashed into the sea while conducting an NDB approach to Masset, British Columbia, Canada. The most probable cause was considered to be a miss-set altimeter.)